Hopetoun, Australia
Current Conditions -  °F | °C
As of 2:31 AM on Wednesday 22 Oct 2014 (Local Time) from YESP Reporting Station
Broken Clouds Broken Clouds  
Wind Chill: 55°   Ceiling: 1200
Heat Index: 55°   Visibility: 6mi
Dew Point: 55°   Wind: 9mph
Humidity: 100%   Direction: 90°E
Pressure: 30.18"   Gusts: NA
Location:  33.95°S, 120.12°E
Report Text: YESP 211831Z AUTO 09008KT 9999 // BKN012 13/13 Q1022
Loading
Personal Weather Stations






























Interactive Weather Map
Tropical Storm Tracking
New forecast layout! Learn more

10-Day Weather Forecast

Advertisements
Track Severe Weather on mobile